Time;durP1;ratioP1;P1;durP2;ratioP2;P2;SDS_P1;SDS_P2;PMS_P1;PMS_P2;Temp;Humidity;BMP_temperature;BMP_pressure;BME280_temperature;BME280_humidity;BME280_pressure;Samples;Min_cycle;Max_cycle;Signal;HPM_P1;HPM_P2
2022/03/25 00:02:15;;;;;;;101.70;54.72;;;9.30;42.50;;;;;;5016356;28;20018;-67
2022/03/25 00:04:41;;;;;;;123.55;65.53;;;9.20;43.10;;;;;;5016111;28;20025;-66
2022/03/25 00:07:07;;;;;;;156.55;81.50;;;9.20;43.60;;;;;;5016219;28;20026;-67
2022/03/25 00:09:33;;;;;;;147.50;77.50;;;9.00;45.00;;;;;;5016159;28;20022;-67
2022/03/25 00:11:59;;;;;;;183.45;94.30;;;9.00;45.10;;;;;;5015991;28;20034;-65
2022/03/25 00:14:25;;;;;;;163.38;80.88;;;8.90;45.30;;;;;;5015803;28;20057;-66
2022/03/25 00:16:51;;;;;;;171.38;93.82;;;8.80;45.60;;;;;;5015994;28;20026;-66
2022/03/25 00:19:17;;;;;;;137.68;74.60;;;8.80;45.60;;;;;;5015897;28;20028;-66
2022/03/25 00:21:44;;;;;;;129.25;71.80;;;8.80;45.70;;;;;;5016416;28;20050;-69
2022/03/25 00:24:10;;;;;;;143.07;74.55;;;8.80;45.80;;;;;;5015920;28;20492;-68
2022/03/25 00:26:36;;;;;;;131.25;69.85;;;8.80;44.90;;;;;;5015621;28;20030;-68
2022/03/25 00:29:02;;;;;;;135.45;72.28;;;8.80;44.40;;;;;;5015828;28;20026;-69
2022/03/25 00:31:27;;;;;;;121.47;66.75;;;8.70;45.50;;;;;;5015885;28;20105;-67
2022/03/25 00:33:53;;;;;;;122.72;65.03;;;8.70;46.30;;;;;;5015619;28;20176;-68
2022/03/25 00:36:21;;;;;;;127.22;64.35;;;8.70;45.90;;;;;;5015650;28;20030;-65
2022/03/25 00:38:47;;;;;;;110.70;59.28;;;8.70;45.50;;;;;;5015727;28;20029;-67
2022/03/25 00:41:13;;;;;;;89.68;51.50;;;8.70;44.80;;;;;;5014235;28;20121;-68
2022/03/25 00:43:42;;;;;;;116.80;60.78;;;8.60;45.60;;;;;;5015764;28;20014;-66
2022/03/25 00:46:08;;;;;;;114.00;59.63;;;8.60;44.80;;;;;;5015507;28;20029;-66
2022/03/25 00:48:34;;;;;;;125.68;65.40;;;8.50;45.50;;;;;;5015480;28;20084;-69
2022/03/25 00:51:00;;;;;;;146.80;79.10;;;8.50;45.90;;;;;;5015334;28;20473;-65
2022/03/25 00:53:26;;;;;;;118.63;64.47;;;8.30;46.70;;;;;;5015323;28;20534;-66
2022/03/25 00:55:52;;;;;;;128.57;66.90;;;8.20;47.10;;;;;;5015092;28;20044;-68
2022/03/25 00:58:18;;;;;;;114.25;59.17;;;8.30;46.50;;;;;;5015123;28;20478;-66
2022/03/25 01:00:44;;;;;;;129.77;67.40;;;8.30;46.10;;;;;;5015333;28;20121;-69
2022/03/25 01:03:11;;;;;;;113.05;58.30;;;8.30;45.90;;;;;;5015179;28;20042;-67
2022/03/25 01:05:37;;;;;;;110.18;57.47;;;8.20;45.50;;;;;;5015102;28;20088;-69
2022/03/25 01:08:04;;;;;;;126.47;59.90;;;8.20;45.90;;;;;;5015114;28;20018;-66
2022/03/25 01:10:31;;;;;;;99.88;52.58;;;8.10;46.30;;;;;;5014899;28;20384;-67
2022/03/25 01:12:57;;;;;;;110.88;57.33;;;8.10;46.60;;;;;;5014922;28;20022;-66
2022/03/25 01:15:23;;;;;;;104.28;53.15;;;8.10;46.70;;;;;;5014738;28;20439;-65
2022/03/25 01:17:49;;;;;;;98.43;52.95;;;8.10;46.60;;;;;;5014952;28;20030;-69
2022/03/25 01:20:17;;;;;;;86.70;48.88;;;8.10;45.70;;;;;;5014194;28;20021;-66
2022/03/25 01:22:43;;;;;;;90.93;49.17;;;8.10;45.70;;;;;;5013619;28;20399;-66
2022/03/25 01:25:09;;;;;;;99.57;52.05;;;8.10;45.60;;;;;;5014801;28;20105;-66
2022/03/25 01:27:35;;;;;;;91.38;50.22;;;8.00;45.90;;;;;;5014639;28;20435;-65
2022/03/25 01:30:01;;;;;;;87.47;48.33;;;7.80;46.80;;;;;;5014824;28;20361;-66
2022/03/25 01:32:27;;;;;;;78.47;44.42;;;7.80;47.20;;;;;;5014723;28;20481;-67
2022/03/25 01:34:53;;;;;;;89.38;46.83;;;7.80;47.80;;;;;;5014568;28;20056;-67
2022/03/25 01:37:19;;;;;;;81.88;45.33;;;7.90;47.40;;;;;;5014531;28;20098;-66
2022/03/25 01:39:45;;;;;;;87.63;46.17;;;7.90;46.50;;;;;;5014262;28;20014;-66
2022/03/25 01:42:11;;;;;;;90.78;51.38;;;7.80;46.60;;;;;;5014517;28;20029;-68
2022/03/25 01:44:37;;;;;;;80.70;45.85;;;7.70;46.80;;;;;;5014341;28;20102;-68
2022/03/25 01:47:03;;;;;;;86.55;49.40;;;7.50;46.90;;;;;;5014466;28;20092;-68
2022/03/25 01:49:29;;;;;;;71.63;40.97;;;7.50;47.40;;;;;;5014359;28;20029;-68
2022/03/25 01:51:59;;;;;;;76.00;42.85;;;7.40;47.40;;;;;;5014242;28;20022;-67
2022/03/25 01:54:28;;;;;;;64.15;38.05;;;7.40;47.20;;;;;;5014074;28;20104;-66
2022/03/25 01:56:56;;;;;;;74.07;42.47;;;7.50;47.20;;;;;;5014149;28;20396;-66
2022/03/25 01:59:23;;;;;;;60.70;34.63;;;7.50;47.00;;;;;;5014111;28;20030;-68
2022/03/25 02:01:49;;;;;;;65.60;36.13;;;7.50;46.80;;;;;;5014191;28;20022;-67
2022/03/25 02:04:17;;;;;;;60.33;35.03;;;7.50;46.70;;;;;;5014161;28;20029;-69
2022/03/25 02:06:44;;;;;;;57.97;33.63;;;7.60;46.60;;;;;;5013973;28;20026;-66
2022/03/25 02:09:10;;;;;;;61.75;34.05;;;7.50;46.50;;;;;;5013985;28;20022;-66
2022/03/25 02:11:37;;;;;;;55.38;32.80;;;7.50;46.40;;;;;;5014036;28;20067;-66
2022/03/25 02:14:03;;;;;;;57.67;33.00;;;7.40;46.50;;;;;;5013668;28;20103;-67
2022/03/25 02:16:39;;;;;;;65.30;37.97;;;7.40;47.10;;;;;;5013886;28;20030;-66
2022/03/25 02:19:06;;;;;;;63.25;34.95;;;7.40;46.60;;;;;;5013867;28;20548;-65
2022/03/25 02:21:35;;;;;;;59.50;34.30;;;7.30;46.80;;;;;;5014113;28;20025;-66
2022/03/25 02:24:01;;;;;;;68.70;37.50;;;7.30;46.60;;;;;;5013593;28;20017;-66
2022/03/25 02:26:28;;;;;;;56.85;33.38;;;7.20;46.50;;;;;;5013926;28;20026;-69
2022/03/25 02:28:55;;;;;;;66.90;37.83;;;7.10;47.50;;;;;;5013705;28;20092;-68
2022/03/25 02:31:21;;;;;;;56.63;33.40;;;7.10;46.90;;;;;;5012871;28;20030;-68
2022/03/25 02:33:47;;;;;;;56.33;32.22;;;7.10;47.30;;;;;;5013716;28;20026;-65
2022/03/25 02:36:13;;;;;;;53.33;32.17;;;7.10;46.80;;;;;;5013483;28;20075;-68
2022/03/25 02:38:38;;;;;;;53.95;31.40;;;7.10;47.00;;;;;;5013381;28;20026;-66
2022/03/25 02:41:04;;;;;;;48.25;28.52;;;7.00;47.40;;;;;;5013621;28;20018;-69
2022/03/25 02:43:30;;;;;;;53.03;31.35;;;7.00;48.20;;;;;;5013457;28;20499;-66
2022/03/25 02:45:56;;;;;;;82.30;45.17;;;7.00;47.30;;;;;;5013501;28;20484;-66
2022/03/25 02:48:22;;;;;;;123.72;64.22;;;6.90;48.20;;;;;;5013474;28;20022;-67
2022/03/25 02:50:48;;;;;;;126.60;67.05;;;6.80;50.20;;;;;;5013350;28;20029;-67
2022/03/25 02:53:15;;;;;;;123.43;65.35;;;6.50;51.50;;;;;;5013373;28;20101;-68
2022/03/25 02:55:42;;;;;;;104.65;56.28;;;6.30;51.60;;;;;;5013391;28;20030;-67
2022/03/25 02:58:08;;;;;;;96.95;53.53;;;6.30;51.40;;;;;;5013261;28;20030;-68
2022/03/25 03:00:34;;;;;;;92.85;52.97;;;6.40;51.20;;;;;;5013489;28;20026;-69
2022/03/25 03:03:01;;;;;;;90.85;50.55;;;6.50;51.10;;;;;;5013482;28;20025;-69
2022/03/25 03:05:31;;;;;;;116.57;59.67;;;6.50;50.80;;;;;;5013304;28;20032;-65
2022/03/25 03:07:57;;;;;;;106.88;56.28;;;6.50;50.90;;;;;;5013249;28;20026;-68
2022/03/25 03:10:24;;;;;;;101.75;52.45;;;6.30;50.90;;;;;;5013345;28;20072;-69
2022/03/25 03:12:52;;;;;;;98.32;53.75;;;6.30;50.90;;;;;;5013213;28;20101;-66
2022/03/25 03:15:18;;;;;;;101.22;54.88;;;6.30;51.50;;;;;;5044772;28;20069;-68
2022/03/25 03:17:45;;;;;;;113.93;61.10;;;6.20;51.40;;;;;;5013236;28;20423;-66
2022/03/25 03:20:13;;;;;;;100.60;54.75;;;6.20;52.20;;;;;;5013193;28;20026;-67
2022/03/25 03:22:39;;;;;;;88.20;50.03;;;6.00;52.70;;;;;;5012990;28;20030;-69
2022/03/25 03:25:06;;;;;;;76.18;44.92;;;6.10;52.30;;;;;;5013240;28;20053;-66
2022/03/25 03:27:32;;;;;;;83.93;48.35;;;6.20;51.20;;;;;;5013465;28;20087;-68
2022/03/25 03:29:58;;;;;;;83.03;43.38;;;6.20;51.70;;;;;;5013412;28;20021;-68
2022/03/25 03:32:28;;;;;;;67.18;38.22;;;6.20;51.30;;;;;;5013104;28;20156;-66
2022/03/25 03:34:55;;;;;;;61.75;36.83;;;6.30;51.10;;;;;;5013034;28;20100;-66
2022/03/25 03:37:21;;;;;;;62.85;34.88;;;6.30;51.10;;;;;;5012930;28;20487;-65
2022/03/25 03:39:47;;;;;;;51.53;31.40;;;6.30;50.50;;;;;;5013173;28;20149;-66
2022/03/25 03:42:14;;;;;;;65.85;38.22;;;6.30;50.50;;;;;;5013035;28;20076;-68
2022/03/25 03:44:40;;;;;;;72.32;41.35;;;6.30;50.80;;;;;;5016450;28;20033;-66
2022/03/25 03:47:07;;;;;;;65.75;36.28;;;6.00;51.70;;;;;;5016657;28;20018;-66
2022/03/25 03:49:33;;;;;;;66.70;36.28;;;5.90;52.30;;;;;;5016612;28;20480;-66
2022/03/25 03:51:59;;;;;;;69.80;37.75;;;6.00;52.70;;;;;;5016518;28;20061;-67
2022/03/25 03:54:25;;;;;;;61.22;34.97;;;5.90;52.90;;;;;;5015238;28;20054;-67
2022/03/25 03:56:51;;;;;;;66.38;34.38;;;5.90;52.50;;;;;;5016292;28;20033;-67
2022/03/25 03:59:16;;;;;;;57.38;32.47;;;6.00;52.90;;;;;;5016284;28;20022;-66
2022/03/25 04:01:42;;;;;;;55.55;32.88;;;6.00;51.60;;;;;;5016472;28;20030;-68
2022/03/25 04:04:08;;;;;;;54.60;30.80;;;6.00;51.60;;;;;;5016177;28;20087;-68
2022/03/25 04:06:33;;;;;;;72.88;39.45;;;5.90;52.00;;;;;;5016129;28;20029;-68
2022/03/25 04:08:59;;;;;;;56.20;30.90;;;6.00;52.00;;;;;;5016307;28;20121;-68
2022/03/25 04:11:25;;;;;;;60.28;34.42;;;5.90;51.80;;;;;;5016351;28;20030;-68
2022/03/25 04:13:51;;;;;;;67.75;39.92;;;5.90;52.70;;;;;;5016099;28;20061;-68
2022/03/25 04:16:17;;;;;;;74.05;44.33;;;5.70;52.70;;;;;;5015838;28;20057;-67
2022/03/25 04:18:42;;;;;;;69.03;38.80;;;5.50;54.20;;;;;;5015899;28;20129;-67
2022/03/25 04:21:08;;;;;;;61.40;34.65;;;5.30;54.90;;;;;;5016085;28;20025;-68
2022/03/25 04:23:34;;;;;;;61.00;35.58;;;5.40;55.10;;;;;;5015837;28;20144;-65
2022/03/25 04:26:00;;;;;;;75.30;43.10;;;5.50;54.40;;;;;;5015984;28;20101;-66
2022/03/25 04:28:25;;;;;;;64.45;37.60;;;5.50;54.50;;;;;;5015902;28;20465;-66
2022/03/25 04:30:51;;;;;;;63.25;36.72;;;5.50;54.10;;;;;;5015733;28;20054;-66
2022/03/25 04:33:17;;;;;;;72.53;40.75;;;5.50;54.30;;;;;;5015685;28;20022;-67
2022/03/25 04:35:42;;;;;;;60.22;36.05;;;5.50;54.60;;;;;;5015733;28;20160;-66
2022/03/25 04:38:09;;;;;;;55.67;33.58;;;5.40;54.80;;;;;;5047415;28;20032;-68
2022/03/25 04:40:34;;;;;;;87.90;46.33;;;5.50;54.50;;;;;;5015628;28;20045;-69
2022/03/25 04:43:02;;;;;;;57.10;33.92;;;5.50;53.40;;;;;;5015670;28;20080;-69
2022/03/25 04:45:29;;;;;;;69.55;39.58;;;5.50;53.50;;;;;;5015518;28;20029;-69
2022/03/25 04:47:56;;;;;;;71.45;41.42;;;5.60;53.10;;;;;;5015438;28;20025;-68
2022/03/25 04:50:22;;;;;;;56.58;32.08;;;5.40;53.20;;;;;;5015502;28;20465;-66
2022/03/25 04:52:48;;;;;;;63.97;37.95;;;5.40;53.20;;;;;;5015394;28;20018;-68
2022/03/25 04:55:15;;;;;;;49.80;30.27;;;5.50;52.80;;;;;;5014508;28;20052;-66
2022/03/25 04:57:41;;;;;;;50.08;31.13;;;5.50;52.20;;;;;;5015370;28;20388;-67
2022/03/25 05:00:09;;;;;;;60.33;34.47;;;5.50;52.00;;;;;;5015347;28;20018;-68
2022/03/25 05:02:35;;;;;;;89.82;49.10;;;5.60;51.70;;;;;;5014107;28;20439;-68
2022/03/25 05:05:02;;;;;;;159.07;75.30;;;5.60;51.60;;;;;;5015300;28;20053;-68
2022/03/25 05:07:28;;;;;;;198.75;92.25;;;5.50;52.40;;;;;;5015213;28;20143;-66
2022/03/25 05:09:57;;;;;;;153.68;80.50;;;5.50;52.70;;;;;;5014993;28;20025;-69
2022/03/25 05:12:23;;;;;;;107.75;60.33;;;5.40;52.70;;;;;;5015059;28;20105;-66
2022/03/25 05:14:49;;;;;;;100.45;54.53;;;5.30;53.20;;;;;;5014729;28;20173;-69
2022/03/25 05:17:15;;;;;;;82.43;48.13;;;5.40;53.30;;;;;;5014731;28;20476;-68
2022/03/25 05:19:42;;;;;;;72.13;43.58;;;5.50;53.00;;;;;;5046793;28;20520;-69
2022/03/25 05:22:08;;;;;;;69.75;40.88;;;5.60;52.50;;;;;;5014980;28;20046;-66
2022/03/25 05:24:33;;;;;;;73.68;42.42;;;5.60;52.40;;;;;;5014772;28;20057;-67
2022/03/25 05:26:59;;;;;;;68.55;39.30;;;5.60;52.20;;;;;;5046580;28;20101;-66
2022/03/25 05:29:29;;;;;;;113.53;61.17;;;5.60;52.10;;;;;;5014735;28;20022;-68
2022/03/25 05:31:55;;;;;;;424.00;230.45;;;5.50;52.70;;;;;;5014429;28;20096;-65
2022/03/25 05:34:21;;;;;;;373.55;207.63;;;5.40;54.60;;;;;;5014690;28;20499;-68
2022/03/25 05:36:46;;;;;;;367.48;199.65;;;5.20;54.70;;;;;;5014493;28;20030;-67
2022/03/25 05:39:14;;;;;;;373.35;214.30;;;5.30;55.60;;;;;;5014462;28;20033;-68
2022/03/25 05:41:42;;;;;;;293.30;166.35;;;5.30;55.70;;;;;;5014506;28;20018;-68
2022/03/25 05:44:08;;;;;;;255.90;146.52;;;5.20;56.20;;;;;;5014420;28;20105;-68
2022/03/25 05:46:34;;;;;;;237.75;135.38;;;5.20;55.80;;;;;;5013866;28;20160;-68
2022/03/25 05:49:00;;;;;;;232.25;129.93;;;5.40;55.90;;;;;;5014217;28;20037;-68
2022/03/25 05:51:26;;;;;;;325.02;190.50;;;5.50;55.80;;;;;;5015919;28;20022;-67
2022/03/25 05:53:52;;;;;;;290.95;157.45;;;5.40;57.30;;;;;;5022244;28;20052;-68
2022/03/25 05:56:18;;;;;;;254.27;147.77;;;5.10;58.10;;;;;;5023898;28;20029;-67
2022/03/25 05:58:43;;;;;;;243.60;140.70;;;5.00;58.30;;;;;;5020916;28;20029;-61
2022/03/25 06:01:09;;;;;;;298.30;155.15;;;5.00;58.50;;;;;;5022396;28;20433;-63
2022/03/25 06:03:35;;;;;;;269.25;141.88;;;5.20;58.40;;;;;;5020729;28;20025;-63
2022/03/25 06:06:05;;;;;;;244.40;134.27;;;5.30;57.90;;;;;;5022087;28;20028;-64
2022/03/25 06:08:31;;;;;;;256.13;138.48;;;5.40;58.10;;;;;;5023414;28;20046;-63
2022/03/25 06:10:59;;;;;;;234.60;130.00;;;5.60;57.90;;;;;;5020572;28;20022;-62
2022/03/25 06:13:26;;;;;;;249.23;135.02;;;5.80;57.00;;;;;;5023213;28;20022;-66
2022/03/25 06:15:53;;;;;;;222.30;124.63;;;8.10;53.40;;;;;;5020097;28;20041;-66
2022/03/25 06:18:19;;;;;;;289.35;161.20;;;10.60;47.60;;;;;;5011898;28;20053;-65
2022/03/25 06:20:45;;;;;;;275.98;153.45;;;12.50;43.00;;;;;;5018356;28;20080;-63
2022/03/25 06:23:10;;;;;;;267.80;152.70;;;13.60;40.90;;;;;;5020558;28;20021;-62
2022/03/25 06:25:36;;;;;;;309.15;175.65;;;14.60;39.00;;;;;;5022706;28;20096;-62
2022/03/25 06:28:07;;;;;;;272.08;148.30;;;15.40;37.10;;;;;;5022170;28;20034;-66
2022/03/25 06:30:35;;;;;;;340.65;188.55;;;15.80;36.10;;;;;;5021474;28;20022;-65
2022/03/25 06:33:06;;;;;;;342.20;191.63;;;16.30;36.00;;;;;;5022904;28;20017;-65
2022/03/25 06:35:31;;;;;;;358.23;197.18;;;16.90;35.10;;;;;;5022337;28;20047;-64
2022/03/25 06:37:58;;;;;;;364.05;200.65;;;17.40;34.50;;;;;;5019453;28;20105;-67
2022/03/25 06:40:24;;;;;;;289.95;159.75;;;17.70;33.90;;;;;;5022796;28;20029;-64
2022/03/25 06:42:57;;;;;;;267.10;151.68;;;18.20;33.10;;;;;;5031110;28;20052;-64
2022/03/25 06:45:24;;;;;;;267.50;148.43;;;18.60;33.50;;;;;;5031925;28;20061;-64
2022/03/25 06:47:49;;;;;;;222.45;130.18;;;19.10;32.80;;;;;;5031584;28;20108;-66
2022/03/25 06:50:17;;;;;;;243.05;130.35;;;19.90;32.00;;;;;;5030600;28;20108;-64
2022/03/25 06:52:44;;;;;;;296.15;154.50;;;20.60;30.70;;;;;;5029462;28;20037;-67
2022/03/25 06:55:11;;;;;;;308.35;162.23;;;20.60;31.00;;;;;;5033281;28;20061;-65
2022/03/25 06:57:38;;;;;;;283.67;143.93;;;20.50;30.30;;;;;;5033003;28;20508;-68
2022/03/25 07:00:08;;;;;;;223.45;121.20;;;20.70;30.60;;;;;;5032915;28;20018;-64
2022/03/25 07:02:34;;;;;;;197.55;104.85;;;20.80;30.00;;;;;;5032940;28;20476;-65
2022/03/25 07:05:00;;;;;;;180.93;99.15;;;21.30;30.00;;;;;;4998166;28;20018;-65
2022/03/25 07:07:27;;;;;;;163.85;91.47;;;22.00;29.60;;;;;;4990917;28;20026;-67
2022/03/25 07:09:54;;;;;;;140.52;78.80;;;22.90;29.10;;;;;;5005942;28;20037;-64
2022/03/25 07:12:20;;;;;;;120.65;70.50;;;24.00;27.80;;;;;;5009215;28;20026;-65
2022/03/25 07:14:45;;;;;;;108.07;64.25;;;24.50;27.40;;;;;;5001735;28;20054;-64
2022/03/25 07:17:11;;;;;;;105.32;59.15;;;25.10;27.20;;;;;;5011319;28;20388;-66
2022/03/25 07:19:37;;;;;;;89.10;55.40;;;25.60;26.80;;;;;;5009959;28;20760;-67
2022/03/25 07:22:03;;;;;;;76.28;51.33;;;26.00;26.60;;;;;;5014775;28;20018;-64
2022/03/25 07:24:29;;;;;;;69.10;47.38;;;26.80;26.50;;;;;;5015048;28;20048;-65
2022/03/25 07:26:55;;;;;;;70.10;48.78;;;27.50;25.70;;;;;;5010167;28;20030;-66
2022/03/25 07:29:21;;;;;;;67.70;46.20;;;27.50;25.60;;;;;;5010497;28;20026;-64
2022/03/25 07:31:47;;;;;;;62.33;44.25;;;28.30;25.60;;;;;;5010203;28;20033;-66
2022/03/25 07:34:13;;;;;;;61.22;43.72;;;29.10;26.00;;;;;;5011625;28;20044;-66
2022/03/25 07:36:38;;;;;;;64.10;44.63;;;29.30;24.80;;;;;;5013682;28;20057;-64
2022/03/25 07:39:04;;;;;;;53.85;40.05;;;29.40;25.10;;;;;;5014796;28;20353;-65
2022/03/25 07:41:30;;;;;;;50.50;39.00;;;29.70;24.50;;;;;;5007551;28;20384;-63
2022/03/25 07:43:56;;;;;;;52.50;37.53;;;29.90;24.40;;;;;;5007517;28;20056;-66
2022/03/25 07:46:28;;;;;;;49.08;35.15;;;30.30;24.40;;;;;;5000752;28;20031;-64
2022/03/25 07:48:53;;;;;;;45.97;32.72;;;30.50;23.70;;;;;;5019564;28;20040;-67
2022/03/25 07:51:19;;;;;;;38.45;29.70;;;31.10;23.60;;;;;;5009417;28;20216;-62
2022/03/25 07:53:45;;;;;;;37.53;29.25;;;31.40;23.40;;;;;;5014905;28;20541;-63
2022/03/25 07:56:11;;;;;;;41.53;30.65;;;31.40;23.10;;;;;;5011641;28;20040;-66
2022/03/25 07:58:37;;;;;;;33.80;26.30;;;31.10;23.70;;;;;;5016319;28;20076;-62
2022/03/25 08:01:04;;;;;;;31.83;23.63;;;31.30;23.80;;;;;;5011987;28;20033;-61
2022/03/25 08:03:30;;;;;;;29.27;23.55;;;31.40;23.40;;;;;;5000011;28;20048;-65
2022/03/25 08:05:57;;;;;;;31.77;24.02;;;31.50;23.20;;;;;;5005257;28;20060;-65
2022/03/25 08:08:23;;;;;;;32.53;23.48;;;31.90;23.50;;;;;;5002814;28;20042;-61
2022/03/25 08:10:55;;;;;;;33.22;23.58;;;32.00;24.50;;;;;;5011806;28;20092;-65
2022/03/25 08:13:22;;;;;;;30.50;22.00;;;32.00;24.60;;;;;;5010888;28;20470;-63
2022/03/25 08:15:47;;;;;;;25.88;20.15;;;32.30;24.50;;;;;;5013123;28;20156;-63
2022/03/25 08:18:13;;;;;;;25.80;18.65;;;32.40;23.30;;;;;;5011096;28;20046;-61
2022/03/25 08:20:47;;;;;;;22.20;17.52;;;32.60;23.10;;;;;;5028201;28;20025;-61
2022/03/25 08:27:48;;;;;;;22.80;18.23;;;32.60;23.60;;;;;;5013254;28;20095;-62
2022/03/25 08:28:50;;;;;;;26.00;20.02;;;33.30;23.20;;;;;;5010390;28;20029;-61
2022/03/25 08:31:16;;;;;;;27.20;22.55;;;33.30;23.00;;;;;;5008691;28;20030;-60
2022/03/25 08:33:43;;;;;;;25.25;21.05;;;32.50;23.10;;;;;;5009677;28;20030;-61
2022/03/25 08:36:09;;;;;;;24.33;20.27;;;32.30;23.10;;;;;;4995758;28;20484;-63
2022/03/25 08:38:35;;;;;;;22.63;19.98;;;32.40;23.10;;;;;;4996954;28;20045;-64
2022/03/25 08:41:01;;;;;;;25.27;20.17;;;32.50;23.40;;;;;;4999136;28;20038;-68
2022/03/25 08:43:27;;;;;;;23.48;19.45;;;32.40;23.70;;;;;;5000548;28;20469;-68
2022/03/25 08:45:54;;;;;;;22.90;20.42;;;32.20;23.40;;;;;;5001244;28;20477;-62
2022/03/25 08:48:19;;;;;;;30.92;22.52;;;32.20;23.10;;;;;;5001219;28;20037;-63
2022/03/25 08:50:45;;;;;;;27.55;21.58;;;32.30;23.70;;;;;;5010685;28;20022;-67
2022/03/25 08:53:12;;;;;;;25.65;21.42;;;32.00;22.80;;;;;;4998467;28;20423;-67
2022/03/25 08:55:38;;;;;;;24.92;21.08;;;31.60;23.50;;;;;;5005379;28;20034;-70
2022/03/25 08:58:04;;;;;;;28.33;22.33;;;31.40;23.30;;;;;;5002373;28;20026;-68
2022/03/25 09:00:30;;;;;;;28.27;23.13;;;31.20;24.00;;;;;;5013460;28;20045;-64
2022/03/25 09:02:57;;;;;;;26.55;22.52;;;30.90;24.50;;;;;;5003036;28;20116;-66
2022/03/25 09:05:23;;;;;;;24.38;21.55;;;30.50;23.30;;;;;;5011065;28;20034;-65
2022/03/25 09:07:49;;;;;;;26.42;22.80;;;30.30;23.20;;;;;;5035366;28;20034;-65
2022/03/25 09:10:15;;;;;;;29.70;22.90;;;29.90;24.70;;;;;;4990592;28;20061;-63
2022/03/25 09:12:42;;;;;;;25.88;21.88;;;29.40;25.80;;;;;;4992502;28;20038;-65
2022/03/25 09:15:09;;;;;;;27.77;22.75;;;29.00;24.30;;;;;;5006551;28;20057;-64
2022/03/25 09:17:35;;;;;;;25.58;22.70;;;28.90;24.20;;;;;;5031245;28;20645;-63
2022/03/25 09:20:03;;;;;;;28.75;22.35;;;28.60;25.40;;;;;;4996030;28;20034;-67
2022/03/25 09:22:31;;;;;;;24.58;21.98;;;28.40;24.10;;;;;;4991793;28;20084;-66
2022/03/25 09:24:58;;;;;;;26.10;21.38;;;27.70;25.60;;;;;;5016941;28;20091;-65
2022/03/25 09:27:23;;;;;;;24.67;21.60;;;27.60;25.30;;;;;;4991322;28;20101;-67
2022/03/25 09:29:50;;;;;;;25.05;20.70;;;27.40;24.30;;;;;;5005364;28;20109;-67
2022/03/25 09:32:16;;;;;;;22.50;18.98;;;27.60;24.70;;;;;;5011354;28;20045;-64
2022/03/25 09:37:26;;;;;;;19.98;16.50;;;27.80;24.80;;;;;;5014946;28;20554;-66
2022/03/25 09:39:55;;;;;;;20.10;16.48;;;27.40;25.10;;;;;;5017332;28;20033;-65
2022/03/25 09:42:21;;;;;;;23.35;16.77;;;27.20;26.50;;;;;;5015248;28;20061;-65
2022/03/25 09:44:49;;;;;;;19.77;16.98;;;27.20;26.40;;;;;;5025163;28;20079;-65
2022/03/25 09:47:16;;;;;;;20.58;17.00;;;27.20;25.60;;;;;;5018666;28;20121;-64
2022/03/25 09:49:43;;;;;;;19.58;15.98;;;27.30;26.80;;;;;;5010798;28;20132;-64
2022/03/25 09:52:09;;;;;;;25.77;17.77;;;27.30;25.30;;;;;;5008635;28;20413;-67
2022/03/25 09:54:37;;;;;;;30.15;20.45;;;27.20;26.40;;;;;;5009058;28;20021;-69
2022/03/25 09:57:05;;;;;;;19.63;17.27;;;27.20;27.00;;;;;;5006553;28;20030;-69
2022/03/25 09:59:32;;;;;;;19.05;15.70;;;27.40;25.20;;;;;;5038040;28;20036;-70
2022/03/25 10:01:58;;;;;;;19.35;15.52;;;27.50;24.40;;;;;;5008503;28;20045;-66
2022/03/25 10:04:43;;;;;;;17.05;15.30;;;27.70;24.40;;;;;;5039622;28;20394;-71
2022/03/25 10:07:23;;;;;;;17.67;15.70;;;27.70;24.00;;;;;;5009737;28;20037;-71
2022/03/25 10:10:21;;;;;;;16.17;14.48;;;27.80;23.90;;;;;;5007902;28;20910;-68
2022/03/25 10:12:48;;;;;;;16.40;14.40;;;28.00;23.80;;;;;;5009030;28;20022;-71
2022/03/25 10:15:25;;;;;;;15.18;13.15;;;28.40;24.20;;;;;;5009917;28;20050;-69
2022/03/25 10:18:05;;;;;;;14.38;12.60;;;28.30;23.50;;;;;;5010816;28;20431;-69
2022/03/25 10:20:39;;;;;;;14.98;12.88;;;27.40;24.60;;;;;;5009630;28;20087;-71
2022/03/25 10:23:11;;;;;;;15.40;12.38;;;27.20;26.50;;;;;;5008914;28;20062;-68
2022/03/25 10:25:48;;;;;;;13.15;11.70;;;27.30;24.10;;;;;;5010822;28;20026;-70
2022/03/25 10:28:43;;;;;;;14.27;11.38;;;27.80;24.90;;;;;;4996105;28;20060;-69
2022/03/25 10:31:11;;;;;;;16.17;11.15;;;27.80;24.80;;;;;;5008705;28;20045;-68
2022/03/25 10:33:44;;;;;;;12.40;10.85;;;27.30;24.60;;;;;;4995518;28;20168;-67
2022/03/25 10:36:11;;;;;;;;;;;27.30;24.40;;;;;;5009122;28;20038;-62
2022/03/25 10:38:41;;;;;;;13.73;10.18;;;27.30;26.00;;;;;;5014641;28;20326;-70
2022/03/25 10:41:08;;;;;;;11.45;9.50;;;27.40;24.60;;;;;;4989569;28;20069;-67
2022/03/25 10:43:34;;;;;;;11.52;10.38;;;27.50;27.20;;;;;;4988464;28;20014;-68
2022/03/25 10:46:00;;;;;;;12.05;10.73;;;27.60;24.90;;;;;;4998143;28;20030;-66
2022/03/25 10:48:26;;;;;;;12.60;10.15;;;27.60;24.80;;;;;;5007977;28;20431;-66
2022/03/25 10:50:54;;;;;;;12.35;10.55;;;27.80;24.90;;;;;;5008954;28;20034;-66
2022/03/25 10:53:27;;;;;;;13.43;10.18;;;28.10;24.80;;;;;;5009345;28;20061;-66
2022/03/25 10:56:02;;;;;;;12.15;10.35;;;28.40;24.80;;;;;;5010098;28;20062;-65
2022/03/25 10:58:28;;;;;;;13.05;9.77;;;28.10;26.30;;;;;;5009576;28;20404;-66
2022/03/25 11:00:54;;;;;;;13.60;10.35;;;28.00;24.50;;;;;;5008781;28;20022;-65
2022/03/25 11:03:20;;;;;;;10.75;9.50;;;27.80;23.00;;;;;;5008087;28;20045;-65
2022/03/25 11:05:46;;;;;;;13.40;10.95;;;27.90;24.60;;;;;;4999805;28;20560;-65
2022/03/25 11:08:12;;;;;;;12.43;11.10;;;28.20;23.50;;;;;;4999618;28;20551;-66
2022/03/25 11:10:38;;;;;;;14.57;11.05;;;27.60;24.40;;;;;;5000013;28;20031;-66
2022/03/25 11:13:05;;;;;;;11.35;10.18;;;27.50;25.20;;;;;;5009310;28;20018;-65
2022/03/25 11:15:32;;;;;;;13.25;10.38;;;27.40;23.60;;;;;;4994579;28;20460;-66
2022/03/25 11:17:58;;;;;;;15.68;10.25;;;27.80;23.90;;;;;;4991706;28;20019;-66
2022/03/25 11:20:28;;;;;;;13.40;10.55;;;28.10;24.60;;;;;;4991805;28;20045;-65
2022/03/25 11:23:06;;;;;;;12.80;11.10;;;28.40;24.70;;;;;;4991268;28;20023;-65
2022/03/25 11:25:38;;;;;;;13.77;11.00;;;28.60;23.20;;;;;;4991091;28;20076;-65
2022/03/25 11:28:20;;;;;;;;;;;;;;;;;;;;;
2022/03/25 11:31:05;;;;;;;14.63;11.13;;;28.20;25.10;;;;;;5016571;28;20071;-66
2022/03/25 11:33:31;;;;;;;11.95;10.68;;;28.30;25.00;;;;;;5011514;28;20352;-64
2022/03/25 11:36:19;;;;;;;11.73;10.15;;;28.00;24.40;;;;;;5009917;28;20033;-62
2022/03/25 11:38:45;;;;;;;11.60;10.38;;;27.50;23.60;;;;;;5008550;28;20069;-67
2022/03/25 11:41:25;;;;;;;14.00;10.13;;;27.70;23.30;;;;;;5011423;28;20201;-66
2022/03/25 11:44:15;;;;;;;10.65;9.45;;;28.00;23.40;;;;;;5022436;28;20530;-63
2022/03/25 11:46:59;;;;;;;9.38;8.35;;;28.30;23.70;;;;;;5013739;28;20021;-65
2022/03/25 11:49:37;;;;;;;10.57;8.65;;;27.80;25.90;;;;;;5028978;28;20022;-64
2022/03/25 11:52:27;;;;;;;9.75;8.75;;;27.50;25.60;;;;;;5013061;28;20508;-66
2022/03/25 11:55:00;;;;;;;10.02;7.70;;;27.10;26.10;;;;;;5007300;28;20125;-70
2022/03/25 11:57:32;;;;;;;12.73;7.63;;;27.00;25.30;;;;;;5016780;28;20054;-66
2022/03/25 12:00:02;;;;;;;13.00;8.73;;;27.10;23.10;;;;;;4975206;28;20389;-64
2022/03/25 12:02:36;;;;;;;9.55;8.35;;;26.70;24.00;;;;;;5011637;28;20030;-66
2022/03/25 12:05:04;;;;;;;12.70;7.30;;;27.40;24.00;;;;;;5013347;28;20030;-68
2022/03/25 12:07:30;;;;;;;7.78;6.97;;;27.90;24.80;;;;;;5008654;28;20113;-65
2022/03/25 12:09:56;;;;;;;7.97;7.18;;;28.00;23.90;;;;;;5014965;28;20053;-67
2022/03/25 12:12:57;;;;;;;7.55;6.35;;;28.30;23.40;;;;;;5002071;28;20041;-67
2022/03/25 12:15:43;;;;;;;6.97;5.05;;;28.50;23.30;;;;;;5030388;28;20524;-63
2022/03/25 12:18:46;;;;;;;5.20;4.70;;;28.90;25.10;;;;;;5003389;28;20685;-66
2022/03/25 12:21:21;;;;;;;7.15;4.75;;;29.00;25.00;;;;;;5004058;28;20057;-66
2022/03/25 12:24:01;;;;;;;5.90;4.70;;;28.20;22.40;;;;;;5005356;28;20038;-64
2022/03/25 12:26:35;;;;;;;5.55;4.30;;;27.30;24.10;;;;;;5021297;28;20112;-61
2022/03/25 12:29:01;;;;;;;4.47;4.00;;;27.20;24.80;;;;;;5013942;28;20084;-61
2022/03/25 12:31:28;;;;;;;5.53;4.22;;;27.30;24.80;;;;;;5014379;28;20037;-61
2022/03/25 12:34:02;;;;;;;4.80;4.30;;;27.60;25.70;;;;;;5011471;28;20030;-60
2022/03/25 12:36:43;;;;;;;6.32;4.15;;;27.80;25.40;;;;;;5011858;28;20427;-61
2022/03/25 12:39:13;;;;;;;4.57;4.18;;;28.10;24.80;;;;;;5021669;28;20034;-56
2022/03/25 12:41:48;;;;;;;5.82;3.90;;;28.30;26.60;;;;;;5032180;28;20183;-62